Time;durP1;ratioP1;P1;durP2;ratioP2;P2;SDS_P1;SDS_P2;PMS_P1;PMS_P2;Temp;Humidity;BMP_temperature;BMP_pressure;BME280_temperature;BME280_humidity;BME280_pressure;Samples;Min_cycle;Max_cycle;Signal;HPM_P1;HPM_P2
2022/08/27 00:00:25;;;;;;;11.10;10.30;;;;;;;;;;5015726;28;20410;-64
2022/08/27 00:02:51;;;;;;;8.57;8.07;;;;;;;;;;5015719;28;20415;-63
2022/08/27 00:05:18;;;;;;;9.50;8.80;;;;;;;;;;5015697;28;20397;-64
2022/08/27 00:07:45;;;;;;;10.30;9.50;;;;;;;;;;5015675;28;20409;-64
2022/08/27 00:10:14;;;;;;;9.13;8.37;;;;;;;;;;5015680;28;20492;-64
2022/08/27 00:12:40;;;;;;;8.70;8.00;;;;;;;;;;5015434;28;20543;-63
2022/08/27 00:15:07;;;;;;;9.73;8.90;;;;;;;;;;5015576;28;20419;-63
2022/08/27 00:17:33;;;;;;;10.80;9.67;;;;;;;;;;5015507;28;20396;-63
2022/08/27 00:20:00;;;;;;;8.77;8.17;;;;;;;;;;5015449;28;20437;-64
2022/08/27 00:22:26;;;;;;;10.03;9.17;;;;;;;;;;5015451;28;20404;-63
2022/08/27 00:24:52;;;;;;;9.53;8.77;;;;;;;;;;5015300;28;20405;-63
2022/08/27 00:27:18;;;;;;;17.30;8.90;;;;;;;;;;5015353;28;20488;-63
2022/08/27 00:29:44;;;;;;;8.57;8.07;;;;;;;;;;5015211;28;20742;-64
2022/08/27 00:32:10;;;;;;;10.50;7.97;;;;;;;;;;5015137;28;20401;-64
2022/08/27 00:34:36;;;;;;;10.00;9.23;;;;;;;;;;5015240;28;20473;-63
2022/08/27 00:37:02;;;;;;;11.47;10.47;;;;;;;;;;5015099;28;20405;-64
2022/08/27 00:39:28;;;;;;;10.83;9.73;;;;;;;;;;5030272;28;20420;-64
2022/08/27 00:41:54;;;;;;;12.40;11.37;;;;;;;;;;5014954;28;20439;-64
2022/08/27 00:44:20;;;;;;;10.50;9.60;;;;;;;;;;5014922;28;20516;-67
2022/08/27 00:46:51;;;;;;;11.57;10.23;;;;;;;;;;5014844;28;20412;-64
2022/08/27 00:49:20;;;;;;;11.37;10.33;;;;;;;;;;5014788;28;20930;-64
2022/08/27 00:51:51;;;;;;;11.80;10.83;;;;;;;;;;5014622;28;21017;-64
2022/08/27 00:54:17;;;;;;;11.60;10.60;;;;;;;;;;5013841;28;20474;-63
2022/08/27 00:56:44;;;;;;;10.73;9.80;;;;;;;;;;5014670;28;20404;-65
2022/08/27 00:59:13;;;;;;;10.33;9.63;;;;;;;;;;5030146;28;20784;-64
2022/08/27 01:02:17;;;;;;;10.23;9.30;;;;;;;;;;5014663;28;20451;-63
2022/08/27 01:04:25;;;;;;;11.63;10.60;;;;;;;;;;5014443;28;20781;-64
2022/08/27 01:06:51;;;;;;;12.53;10.60;;;;;;;;;;5014557;28;20402;-63
2022/08/27 01:09:17;;;;;;;11.00;10.20;;;;;;;;;;5014625;28;20431;-63
2022/08/27 01:11:43;;;;;;;11.97;10.77;;;;;;;;;;5014449;28;20452;-64
2022/08/27 01:14:09;;;;;;;10.63;9.83;;;;;;;;;;5014367;28;20470;-63
2022/08/27 01:16:40;;;;;;;11.80;10.60;;;;;;;;;;5014362;28;20902;-65
2022/08/27 01:19:09;;;;;;;12.90;11.77;;;;;;;;;;5014297;28;20421;-64
2022/08/27 01:21:42;;;;;;;13.07;12.07;;;;;;;;;;5014328;28;20780;-63
2022/08/27 01:24:29;;;;;;;12.30;11.30;;;;;;;;;;5014137;28;20405;-63
2022/08/27 01:26:55;;;;;;;11.47;10.30;;;;;;;;;;5013488;28;20469;-64
2022/08/27 01:29:21;;;;;;;11.33;10.63;;;;;;;;;;5014137;28;20401;-63
2022/08/27 01:31:47;;;;;;;12.40;11.40;;;;;;;;;;5014075;28;20411;-63
2022/08/27 01:34:13;;;;;;;13.93;12.70;;;;;;;;;;5014009;28;20978;-64
2022/08/27 01:36:40;;;;;;;21.70;11.40;;;;;;;;;;5014080;28;20408;-64
2022/08/27 01:39:06;;;;;;;12.20;11.30;;;;;;;;;;5014018;28;20441;-64
2022/08/27 01:41:33;;;;;;;13.77;10.63;;;;;;;;;;5013972;28;20389;-64
2022/08/27 01:43:59;;;;;;;12.67;11.67;;;;;;;;;;5013893;28;20421;-63
2022/08/27 01:46:27;;;;;;;15.43;11.03;;;;;;;;;;5013899;28;20404;-64
2022/08/27 01:48:53;;;;;;;14.43;13.20;;;;;;;;;;5013879;28;20900;-63
2022/08/27 01:51:20;;;;;;;11.73;10.60;;;;;;;;;;5013658;28;20464;-64
2022/08/27 01:53:46;;;;;;;14.97;13.20;;;;;;;;;;5013727;28;20475;-64
2022/08/27 01:56:12;;;;;;;13.30;12.10;;;;;;;;;;5013757;28;20423;-64
2022/08/27 01:58:38;;;;;;;12.73;11.43;;;;;;;;;;5013779;28;20416;-64
2022/08/27 02:01:07;;;;;;;12.80;11.60;;;;;;;;;;5013777;28;20898;-64
2022/08/27 02:03:35;;;;;;;15.67;12.03;;;;;;;;;;5013525;28;20409;-65
2022/08/27 02:06:02;;;;;;;17.47;12.00;;;;;;;;;;5013590;28;20402;-64
2022/08/27 02:08:28;;;;;;;12.53;11.43;;;;;;;;;;5013723;28;20877;-64
2022/08/27 02:10:54;;;;;;;14.03;12.70;;;;;;;;;;5013707;28;20409;-64
2022/08/27 02:13:20;;;;;;;16.33;11.50;;;;;;;;;;5013825;28;20986;-64
2022/08/27 02:15:46;;;;;;;12.80;11.80;;;;;;;;;;5013521;28;20401;-64
2022/08/27 02:18:13;;;;;;;14.33;12.60;;;;;;;;;;5013554;28;20503;-64
2022/08/27 02:20:40;;;;;;;16.63;13.30;;;;;;;;;;5013599;28;20402;-64
2022/08/27 02:23:06;;;;;;;12.97;11.73;;;;;;;;;;5013467;28;20910;-63
2022/08/27 02:25:32;;;;;;;16.83;13.00;;;;;;;;;;5013785;28;20508;-64
2022/08/27 02:27:59;;;;;;;13.40;11.47;;;;;;;;;;5013499;28;20410;-64
2022/08/27 02:30:25;;;;;;;11.80;10.73;;;;;;;;;;5013512;28;20899;-64
2022/08/27 02:32:51;;;;;;;14.83;13.47;;;;;;;;;;5013409;28;20453;-64
2022/08/27 02:35:18;;;;;;;14.13;12.20;;;;;;;;;;5013396;28;20493;-64
2022/08/27 02:37:44;;;;;;;13.50;12.40;;;;;;;;;;5013468;28;20404;-64
2022/08/27 02:40:11;;;;;;;11.90;10.93;;;;;;;;;;5013646;28;20465;-63
2022/08/27 02:42:37;;;;;;;14.10;12.83;;;;;;;;;;5013304;28;21008;-63
2022/08/27 02:45:06;;;;;;;14.53;13.13;;;;;;;;;;5013573;28;20413;-64
2022/08/27 02:47:33;;;;;;;15.80;14.20;;;;;;;;;;5028613;28;20409;-64
2022/08/27 02:49:59;;;;;;;14.40;11.90;;;;;;;;;;5013329;28;20959;-64
2022/08/27 02:52:26;;;;;;;15.70;14.27;;;;;;;;;;5013064;28;20565;-64
2022/08/27 02:54:52;;;;;;;18.33;16.40;;;;;;;;;;5013345;28;20916;-76
2022/08/27 02:57:18;;;;;;;18.20;16.23;;;;;;;;;;5013278;28;20900;-63
2022/08/27 02:59:44;;;;;;;15.33;13.93;;;;;;;;;;5013271;28;20436;-64
2022/08/27 03:02:10;;;;;;;14.40;13.30;;;;;;;;;;5013171;28;20395;-67
2022/08/27 03:04:37;;;;;;;14.40;12.77;;;;;;;;;;5013094;28;20419;-64
2022/08/27 03:07:03;;;;;;;14.40;13.10;;;;;;;;;;5013174;28;20405;-64
2022/08/27 03:09:29;;;;;;;18.63;13.07;;;;;;;;;;5013197;28;20397;-64
2022/08/27 03:11:55;;;;;;;19.03;13.93;;;;;;;;;;5013072;28;20416;-64
2022/08/27 03:14:21;;;;;;;16.23;14.63;;;;;;;;;;5013037;28;20473;-64
2022/08/27 03:16:47;;;;;;;14.50;13.20;;;;;;;;;;5014690;28;20404;-64
2022/08/27 03:19:14;;;;;;;22.03;14.93;;;;;;;;;;5016585;28;20435;-64
2022/08/27 03:21:40;;;;;;;15.70;14.20;;;;;;;;;;5016485;28;20488;-64
2022/08/27 03:24:06;;;;;;;16.97;13.20;;;;;;;;;;5016476;28;20473;-77
2022/08/27 03:26:33;;;;;;;15.07;13.67;;;;;;;;;;5016357;28;20927;-64
2022/08/27 03:28:59;;;;;;;17.50;15.20;;;;;;;;;;5016401;28;20467;-66
2022/08/27 03:31:26;;;;;;;16.00;14.60;;;;;;;;;;5016181;28;20450;-65
2022/08/27 03:33:53;;;;;;;16.40;13.30;;;;;;;;;;5016187;28;20864;-64
2022/08/27 03:36:19;;;;;;;14.63;13.43;;;;;;;;;;5016187;28;20398;-64
2022/08/27 03:38:45;;;;;;;12.93;11.83;;;;;;;;;;5016194;28;20416;-64
2022/08/27 03:41:12;;;;;;;17.30;12.17;;;;;;;;;;5016040;28;20408;-76
2022/08/27 03:43:38;;;;;;;13.30;12.00;;;;;;;;;;5016335;28;20405;-76
2022/08/27 03:46:04;;;;;;;13.97;12.67;;;;;;;;;;5015950;28;20420;-74
2022/08/27 03:48:31;;;;;;;12.77;11.53;;;;;;;;;;5015943;28;20409;-77
2022/08/27 03:50:57;;;;;;;12.93;11.70;;;;;;;;;;5015873;28;20405;-64
2022/08/27 03:53:23;;;;;;;12.63;11.67;;;;;;;;;;5016161;28;20477;-64
2022/08/27 03:55:49;;;;;;;18.30;12.40;;;;;;;;;;5016086;28;20405;-75
2022/08/27 03:58:16;;;;;;;12.93;11.73;;;;;;;;;;5015860;28;20517;-76
2022/08/27 04:00:42;;;;;;;12.77;11.77;;;;;;;;;;5015810;28;20397;-77
2022/08/27 04:03:11;;;;;;;15.83;11.80;;;;;;;;;;5015755;28;20403;-77
2022/08/27 04:05:37;;;;;;;14.13;12.53;;;;;;;;;;5015716;28;20406;-77
2022/08/27 04:08:05;;;;;;;17.80;13.70;;;;;;;;;;5015689;28;20500;-77
2022/08/27 04:10:32;;;;;;;16.27;14.50;;;;;;;;;;5015618;28;20405;-66
2022/08/27 04:12:58;;;;;;;17.90;16.03;;;;;;;;;;5015402;28;20465;-64
2022/08/27 04:15:24;;;;;;;18.80;17.10;;;;;;;;;;5015507;28;20464;-65
2022/08/27 04:17:50;;;;;;;19.73;17.10;;;;;;;;;;5015401;28;20422;-65
2022/08/27 04:20:16;;;;;;;19.57;17.57;;;;;;;;;;5015609;28;20413;-77
2022/08/27 04:22:42;;;;;;;18.33;16.40;;;;;;;;;;5015356;28;20415;-77
2022/08/27 04:25:08;;;;;;;20.33;14.70;;;;;;;;;;5015339;28;20411;-77
2022/08/27 04:27:34;;;;;;;19.70;17.07;;;;;;;;;;5015201;28;20492;-74
2022/08/27 04:30:01;;;;;;;16.07;14.40;;;;;;;;;;5015470;28;20418;-77
2022/08/27 04:32:28;;;;;;;17.53;15.23;;;;;;;;;;5015108;28;20461;-77
2022/08/27 04:34:55;;;;;;;16.70;15.00;;;;;;;;;;5015177;28;20969;-77
2022/08/27 04:37:21;;;;;;;19.30;16.10;;;;;;;;;;5015106;28;20468;-65
2022/08/27 04:39:47;;;;;;;18.30;16.50;;;;;;;;;;5015284;28;20459;-77
2022/08/27 04:42:13;;;;;;;20.23;18.10;;;;;;;;;;5015006;28;20405;-76
2022/08/27 04:44:39;;;;;;;15.70;14.17;;;;;;;;;;5015274;28;20500;-77
2022/08/27 04:47:05;;;;;;;22.03;18.10;;;;;;;;;;5014969;28;20527;-75
2022/08/27 04:49:32;;;;;;;19.07;15.47;;;;;;;;;;5014885;28;20416;-76
2022/08/27 04:51:58;;;;;;;16.53;14.67;;;;;;;;;;5014705;28;20456;-66
2022/08/27 04:54:25;;;;;;;17.10;13.83;;;;;;;;;;5014703;28;20959;-64
2022/08/27 04:56:51;;;;;;;16.40;14.80;;;;;;;;;;5014648;28;20490;-65
2022/08/27 04:59:17;;;;;;;19.17;16.87;;;;;;;;;;5014532;28;20425;-65
2022/08/27 05:01:43;;;;;;;20.60;18.10;;;;;;;;;;5014636;28;20398;-65
2022/08/27 05:04:12;;;;;;;17.40;15.77;;;;;;;;;;5014561;28;20425;-65
2022/08/27 05:06:38;;;;;;;21.80;17.70;;;;;;;;;;5014560;28;20402;-65
2022/08/27 05:09:04;;;;;;;16.37;14.73;;;;;;;;;;5014687;28;20417;-64
2022/08/27 05:11:34;;;;;;;19.20;17.30;;;;;;;;;;5014594;28;20413;-65
2022/08/27 05:14:04;;;;;;;18.10;16.13;;;;;;;;;;5014732;28;20457;-65
2022/08/27 05:16:30;;;;;;;19.00;17.00;;;;;;;;;;5014436;28;20405;-76
2022/08/27 05:18:57;;;;;;;20.00;17.53;;;;;;;;;;5014429;28;20416;-77
2022/08/27 05:21:26;;;;;;;19.33;17.40;;;;;;;;;;5014322;28;20408;-76
2022/08/27 05:23:53;;;;;;;30.67;24.63;;;;;;;;;;5014168;28;20425;-75
2022/08/27 05:26:19;;;;;;;33.77;30.23;;;;;;;;;;5014113;28;20900;-75
2022/08/27 05:28:45;;;;;;;24.97;21.37;;;;;;;;;;5014236;28;20476;-73
2022/08/27 05:31:12;;;;;;;28.30;20.97;;;;;;;;;;5014135;28;20525;-72
2022/08/27 05:33:38;;;;;;;21.10;18.90;;;;;;;;;;5014002;28;20480;-73
2022/08/27 05:36:05;;;;;;;23.07;20.00;;;;;;;;;;5013986;28;20456;-81
2022/08/27 05:38:31;;;;;;;22.83;20.43;;;;;;;;;;5013822;28;20468;-81
2022/08/27 05:41:04;;;;;;;24.77;18.97;;;;;;;;;;5014053;28;20414;-75
2022/08/27 05:43:31;;;;;;;19.67;17.80;;;;;;;;;;5014109;28;20409;-80
2022/08/27 05:45:57;;;;;;;18.97;16.73;;;;;;;;;;5014138;28;20964;-64
2022/08/27 05:48:23;;;;;;;24.40;18.07;;;;;;;;;;5013923;28;20420;-79
2022/08/27 05:50:49;;;;;;;19.43;17.60;;;;;;;;;;5013546;28;20766;-79
2022/08/27 05:53:15;;;;;;;22.00;19.90;;;;;;;;;;5013767;28;20476;-68
2022/08/27 05:55:42;;;;;;;31.90;28.90;;;;;;;;;;5013815;28;20401;-78
2022/08/27 06:01:03;;;;;;;21.33;19.13;;;;;;;;;;5013781;28;20499;-79
2022/08/27 06:01:04;;;;;;;26.63;17.73;;;;;;;;;;5013804;28;20751;-74
2022/08/27 06:03:31;;;;;;;17.67;16.13;;;;;;;;;;5013710;28;20407;-71
2022/08/27 06:06:01;;;;;;;18.93;16.80;;;;;;;;;;5013753;28;20737;-75
2022/08/27 06:08:27;;;;;;;19.47;17.47;;;;;;;;;;5013713;28;20449;-74
2022/08/27 06:10:54;;;;;;;18.57;16.77;;;;;;;;;;5013696;28;20408;-74
2022/08/27 06:13:20;;;;;;;20.33;16.50;;;;;;;;;;5013532;28;20465;-64
2022/08/27 06:15:46;;;;;;;18.83;16.93;;;;;;;;;;5013562;28;20429;-66
2022/08/27 06:18:12;;;;;;;18.50;16.97;;;;;;;;;;5013641;28;20445;-70
2022/08/27 06:20:38;;;;;;;20.33;18.00;;;;;;;;;;5013540;28;20406;-75
2022/08/27 06:23:04;;;;;;;18.90;17.00;;;;;;;;;;5013570;28;20414;-73
2022/08/27 06:25:31;;;;;;;24.03;16.93;;;;;;;;;;5013629;28;20409;-74
2022/08/27 06:27:57;;;;;;;17.80;16.33;;;;;;;;;;5013749;28;20401;-75
2022/08/27 06:30:23;;;;;;;19.10;17.10;;;;;;;;;;5013552;28;20399;-75
2022/08/27 06:32:50;;;;;;;19.70;17.83;;;;;;;;;;5013540;28;20467;-64
2022/08/27 06:35:16;;;;;;;22.63;19.73;;;;;;;;;;5013992;28;20438;-64
2022/08/27 06:37:42;;;;;;;20.47;18.27;;;;;;;;;;5013442;28;20402;-64
2022/08/27 06:40:09;;;;;;;19.03;17.23;;;;;;;;;;5013371;28;20821;-64
2022/08/27 06:42:35;;;;;;;20.73;18.47;;;;;;;;;;5013565;28;20497;-64
2022/08/27 06:45:01;;;;;;;27.87;24.90;;;;;;;;;;5013394;28;20407;-76
2022/08/27 06:47:27;;;;;;;20.30;18.50;;;;;;;;;;5013347;28;20408;-76
2022/08/27 06:49:54;;;;;;;21.00;18.70;;;;;;;;;;5013336;28;20404;-77
2022/08/27 06:52:20;;;;;;;20.57;17.30;;;;;;;;;;5015635;28;20533;-74
2022/08/27 06:54:46;;;;;;;20.07;18.10;;;;;;;;;;5017239;28;20891;-77
2022/08/27 06:57:12;;;;;;;21.77;17.33;;;;;;;;;;5017123;28;20415;-77
2022/08/27 06:59:38;;;;;;;18.33;16.43;;;;;;;;;;5016950;28;20407;-76
2022/08/27 07:02:04;;;;;;;24.17;20.63;;;;;;;;;;5016858;28;20419;-74
2022/08/27 07:04:30;;;;;;;19.67;17.67;;;;;;;;;;5016929;28;20546;-75
2022/08/27 07:06:56;;;;;;;21.17;19.13;;;;;;;;;;5016854;28;20796;-76
2022/08/27 07:09:24;;;;;;;21.43;19.23;;;;;;;;;;5016879;28;20557;-76
2022/08/27 07:11:50;;;;;;;30.57;22.30;;;;;;;;;;5016711;28;20403;-76
2022/08/27 07:14:16;;;;;;;27.47;22.47;;;;;;;;;;5016595;28;20478;-65
2022/08/27 07:16:42;;;;;;;24.57;22.07;;;;;;;;;;5016613;28;20503;-65
2022/08/27 07:19:08;;;;;;;28.47;22.57;;;;;;;;;;5016830;28;20701;-65
2022/08/27 07:21:34;;;;;;;24.73;22.00;;;;;;;;;;5016539;28;20412;-65
2022/08/27 07:24:03;;;;;;;29.03;21.13;;;;;;;;;;5016464;28;20914;-65
2022/08/27 07:26:30;;;;;;;26.90;20.63;;;;;;;;;;5016728;28;20535;-65
2022/08/27 07:28:56;;;;;;;28.53;24.30;;;;;;;;;;5016281;28;20423;-68
2022/08/27 07:31:23;;;;;;;24.10;21.50;;;;;;;;;;5016438;28;20439;-66
2022/08/27 07:33:49;;;;;;;23.50;20.97;;;;;;;;;;5016263;28;20467;-65
2022/08/27 07:36:15;;;;;;;31.67;22.90;;;;;;;;;;5016542;28;20438;-65
2022/08/27 07:38:41;;;;;;;32.93;25.30;;;;;;;;;;5018041;28;20409;-72
2022/08/27 07:41:08;;;;;;;25.33;22.60;;;;;;;;;;5030252;28;20795;-74
2022/08/27 07:46:21;;;;;;;29.43;24.03;;;;;;;;;;5027743;28;20408;-69
2022/08/27 07:48:47;;;;;;;32.33;23.30;;;;;;;;;;5028346;28;20412;-66
2022/08/27 07:51:17;;;;;;;26.57;23.80;;;;;;;;;;5027504;28;20522;-67
2022/08/27 07:53:44;;;;;;;35.80;24.37;;;;;;;;;;5028035;28;20543;-65
2022/08/27 07:56:11;;;;;;;26.47;22.20;;;;;;;;;;5027718;28;20417;-66
2022/08/27 07:58:37;;;;;;;31.37;24.70;;;;;;;;;;5034422;28;20412;-76
2022/08/27 08:01:03;;;;;;;35.47;25.07;;;;;;;;;;5037048;28;20417;-75
2022/08/27 08:03:30;;;;;;;34.33;25.27;;;;;;;;;;5037252;28;20416;-73
2022/08/27 08:05:56;;;;;;;26.63;23.93;;;;;;;;;;5036688;28;20475;-74
2022/08/27 08:08:23;;;;;;;26.57;23.60;;;;;;;;;;5023816;28;20432;-65
2022/08/27 08:10:49;;;;;;;27.10;23.17;;;;;;;;;;5015504;28;20902;-65
2022/08/27 08:13:17;;;;;;;27.77;24.80;;;;;;;;;;5015690;28;20467;-65
2022/08/27 08:15:43;;;;;;;29.60;23.87;;;;;;;;;;5015579;28;20504;-65
2022/08/27 08:18:09;;;;;;;28.47;23.73;;;;;;;;;;5015588;28;20769;-65
2022/08/27 08:20:35;;;;;;;33.23;26.40;;;;;;;;;;5015488;28;20451;-65
2022/08/27 08:23:01;;;;;;;35.53;25.43;;;;;;;;;;5015429;28;20791;-65
2022/08/27 08:25:28;;;;;;;28.23;22.93;;;;;;;;;;5015318;28;20407;-65
2022/08/27 08:27:54;;;;;;;29.17;22.87;;;;;;;;;;5015196;28;20762;-65
2022/08/27 08:30:21;;;;;;;26.97;24.13;;;;;;;;;;5015226;28;20406;-65
2022/08/27 08:32:47;;;;;;;33.07;25.70;;;;;;;;;;5014930;28;20463;-65
2022/08/27 08:35:13;;;;;;;25.73;23.03;;;;;;;;;;5014943;28;20457;-65
2022/08/27 08:37:39;;;;;;;31.43;25.77;;;;;;;;;;5015015;28;20485;-73
2022/08/27 08:40:06;;;;;;;34.60;26.70;;;;;;;;;;5015004;28;20496;-67
2022/08/27 08:42:44;;;;;;;31.00;24.50;;;;;;;;;;5014956;28;20417;-71
2022/08/27 08:45:11;;;;;;;32.33;23.63;;;;;;;;;;5014872;28;20440;-70
2022/08/27 08:47:42;;;;;;;26.83;22.67;;;;;;;;;;5015001;28;20878;-72
2022/08/27 08:50:08;;;;;;;24.97;20.57;;;;;;;;;;5014835;28;20412;-69
2022/08/27 08:52:34;;;;;;;26.73;22.13;;;;;;;;;;5014220;28;20482;-69
2022/08/27 08:55:20;;;;;;;24.73;21.40;;;;;;;;;;5014720;28;20409;-65
2022/08/27 08:58:07;;;;;;;25.30;22.80;;;;;;;;;;5014280;28;20427;-66
2022/08/27 09:00:34;;;;;;;26.03;20.50;;;;;;;;;;5014684;28;20540;-66
2022/08/27 09:03:00;;;;;;;31.43;22.13;;;;;;;;;;5014534;28;20396;-66
2022/08/27 09:05:26;;;;;;;28.70;21.47;;;;;;;;;;5014535;28;20417;-67
2022/08/27 09:08:01;;;;;;;23.50;20.43;;;;;;;;;;5013632;28;20486;-66
2022/08/27 09:10:38;;;;;;;22.73;20.43;;;;;;;;;;5014731;28;20419;-66
2022/08/27 09:13:05;;;;;;;25.80;18.63;;;;;;;;;;5029332;28;20844;-67
2022/08/27 09:15:33;;;;;;;25.97;21.00;;;;;;;;;;5013903;28;20417;-67
2022/08/27 09:18:10;;;;;;;23.47;19.80;;;;;;;;;;5014339;28;20390;-66
2022/08/27 09:20:37;;;;;;;26.73;20.70;;;;;;;;;;5014296;28;20473;-66
2022/08/27 09:23:04;;;;;;;21.83;19.53;;;;;;;;;;5014505;28;20407;-66
2022/08/27 09:25:37;;;;;;;22.73;20.27;;;;;;;;;;5014482;28;20758;-66
2022/08/27 09:29:14;;;;;;;23.43;20.93;;;;;;;;;;5014270;28;20466;-65
2022/08/27 09:30:54;;;;;;;26.50;19.80;;;;;;;;;;5014099;28;20474;-66
2022/08/27 09:33:20;;;;;;;24.00;19.73;;;;;;;;;;5014104;28;20830;-65
2022/08/27 09:35:47;;;;;;;22.67;19.43;;;;;;;;;;5013940;28;20401;-66
2022/08/27 09:38:24;;;;;;;22.60;18.77;;;;;;;;;;5013886;28;20432;-65
2022/08/27 09:40:51;;;;;;;21.20;18.30;;;;;;;;;;5013701;28;20425;-66
2022/08/27 09:43:27;;;;;;;21.60;17.73;;;;;;;;;;5013825;28;20412;-65
2022/08/27 09:45:58;;;;;;;19.67;17.40;;;;;;;;;;5013968;28;20956;-66
2022/08/27 09:48:26;;;;;;;84.07;74.90;;;;;;;;;;5013859;28;20454;-67
2022/08/27 09:50:54;;;;;;;17.60;15.80;;;;;;;;;;5013702;28;20424;-66
2022/08/27 09:53:24;;;;;;;36.07;27.20;;;;;;;;;;5013791;28;20458;-66
2022/08/27 09:55:56;;;;;;;16.00;13.90;;;;;;;;;;5013887;28;20416;-66
2022/08/27 09:58:33;;;;;;;16.30;13.00;;;;;;;;;;5013844;28;20398;-66
2022/08/27 10:01:04;;;;;;;14.87;13.47;;;;;;;;;;5014004;28;20408;-66
2022/08/27 10:03:30;;;;;;;16.90;14.07;;;;;;;;;;5013881;28;20401;-66
2022/08/27 10:05:56;;;;;;;17.03;13.10;;;;;;;;;;5013684;28;20420;-66
2022/08/27 10:08:34;;;;;;;14.90;12.90;;;;;;;;;;5013685;28;20401;-66
2022/08/27 10:11:03;;;;;;;14.00;12.63;;;;;;;;;;5013602;28;20461;-65
2022/08/27 10:13:33;;;;;;;17.00;15.37;;;;;;;;;;5013633;28;20477;-65
2022/08/27 10:16:17;;;;;;;16.97;13.00;;;;;;;;;;5012858;28;20487;-81
2022/08/27 10:18:49;;;;;;;18.17;14.07;;;;;;;;;;5012228;28;20416;-66
2022/08/27 10:21:21;;;;;;;13.90;12.57;;;;;;;;;;5012099;28;20891;-66
2022/08/27 10:24:02;;;;;;;21.00;12.20;;;;;;;;;;5012115;28;20385;-81
2022/08/27 10:26:33;;;;;;;13.07;11.97;;;;;;;;;;5015320;28;20556;-66
2022/08/27 10:29:14;;;;;;;14.77;13.43;;;;;;;;;;5016468;28;20461;-66
2022/08/27 10:31:59;;;;;;;13.67;12.57;;;;;;;;;;5017429;28;20897;-65
2022/08/27 10:34:44;;;;;;;32.13;28.50;;;;;;;;;;5015909;28;20518;-72
2022/08/27 10:37:13;;;;;;;13.57;12.30;;;;;;;;;;5016081;28;20447;-65
2022/08/27 10:39:45;;;;;;;15.43;11.57;;;;;;;;;;5016362;28;20416;-65
2022/08/27 10:42:17;;;;;;;13.80;11.93;;;;;;;;;;5017226;28;20408;-65
2022/08/27 10:44:51;;;;;;;14.37;13.03;;;;;;;;;;5017373;28;20423;-65
2022/08/27 10:47:17;;;;;;;14.87;13.50;;;;;;;;;;5017173;28;20407;-64
2022/08/27 10:49:43;;;;;;;15.10;13.67;;;;;;;;;;5016925;28;20724;-64
2022/08/27 10:52:18;;;;;;;17.83;15.57;;;;;;;;;;5016734;28;20622;-65
2022/08/27 10:55:04;;;;;;;15.87;14.07;;;;;;;;;;5016785;28;20415;-64
2022/08/27 10:57:45;;;;;;;17.00;14.00;;;;;;;;;;5017000;28;20812;-64
2022/08/27 11:00:19;;;;;;;15.27;13.90;;;;;;;;;;5016997;28;20507;-63
2022/08/27 11:02:56;;;;;;;15.07;13.57;;;;;;;;;;5016910;28;20413;-64
2022/08/27 11:05:43;;;;;;;21.70;14.80;;;;;;;;;;5016818;28;20418;-63
2022/08/27 11:08:18;;;;;;;14.20;13.00;;;;;;;;;;5016779;28;20426;-64
2022/08/27 11:10:46;;;;;;;16.63;13.00;;;;;;;;;;5031969;28;20428;-63
2022/08/27 11:13:14;;;;;;;15.00;12.30;;;;;;;;;;5016876;28;20803;-66
2022/08/27 11:15:45;;;;;;;31.67;28.60;;;;;;;;;;5016612;28;20408;-64
2022/08/27 11:18:11;;;;;;;12.30;11.20;;;;;;;;;;5016345;28;20422;-63
2022/08/27 11:20:45;;;;;;;12.30;11.27;;;;;;;;;;5016579;28;20171;-63
2022/08/27 11:23:19;;;;;;;12.47;11.33;;;;;;;;;;5016544;28;20177;-65
2022/08/27 11:25:45;;;;;;;13.00;11.50;;;;;;;;;;5016474;28;20412;-64
2022/08/27 11:28:12;;;;;;;12.77;11.80;;;;;;;;;;5016363;28;20405;-64
2022/08/27 11:30:44;;;;;;;15.17;11.93;;;;;;;;;;5016591;28;20413;-64
2022/08/27 11:33:19;;;;;;;11.80;10.73;;;;;;;;;;5016241;28;20468;-63
2022/08/27 11:35:57;;;;;;;12.47;11.53;;;;;;;;;;5016286;28;20561;-64
2022/08/27 11:38:29;;;;;;;14.50;11.40;;;;;;;;;;5015418;28;20405;-64
2022/08/27 11:41:13;;;;;;;12.47;11.37;;;;;;;;;;5016225;28;20397;-63
2022/08/27 11:43:40;;;;;;;11.10;10.23;;;;;;;;;;5016182;28;20393;-63
2022/08/27 11:46:08;;;;;;;11.30;10.40;;;;;;;;;;5016063;28;20416;-64
2022/08/27 11:48:36;;;;;;;12.03;10.87;;;;;;;;;;5016113;28;20401;-63
2022/08/27 11:51:06;;;;;;;12.70;11.50;;;;;;;;;;5015891;28;20906;-64
2022/08/27 11:53:34;;;;;;;11.83;10.77;;;;;;;;;;5015893;28;20468;-64
2022/08/27 11:56:14;;;;;;;11.93;10.93;;;;;;;;;;5015989;28;20401;-63
2022/08/27 11:58:40;;;;;;;15.33;11.10;;;;;;;;;;5015918;28;20544;-64
2022/08/27 12:01:14;;;;;;;11.93;11.10;;;;;;;;;;5015867;28;20397;-64
2022/08/27 12:03:42;;;;;;;12.80;11.90;;;;;;;;;;5015743;28;20447;-64
2022/08/27 12:06:09;;;;;;;13.20;12.20;;;;;;;;;;5015952;28;20405;-64
2022/08/27 12:08:36;;;;;;;13.60;12.40;;;;;;;;;;5015784;28;20401;-64
2022/08/27 12:11:11;;;;;;;15.20;13.93;;;;;;;;;;5015629;28;20500;-64
2022/08/27 12:13:43;;;;;;;15.33;13.40;;;;;;;;;;5015713;28;20475;-64
2022/08/27 12:16:18;;;;;;;20.93;19.03;;;;;;;;;;5015544;28;20404;-63
2022/08/27 12:18:53;;;;;;;17.17;15.40;;;;;;;;;;5015469;28;20403;-64
2022/08/27 12:21:36;;;;;;;16.20;14.73;;;;;;;;;;5015409;28;20404;-64
2022/08/27 12:24:13;;;;;;;16.80;14.63;;;;;;;;;;5015367;28;20407;-64
2022/08/27 12:26:41;;;;;;;17.13;15.10;;;;;;;;;;5015319;28;20423;-63
2022/08/27 12:29:30;;;;;;;16.80;15.37;;;;;;;;;;5015494;28;20405;-63
2022/08/27 12:32:16;;;;;;;18.70;15.27;;;;;;;;;;5015126;28;20400;-64
2022/08/27 12:34:43;;;;;;;18.03;15.87;;;;;;;;;;5015021;28;20508;-64
2022/08/27 12:37:11;;;;;;;19.90;15.00;;;;;;;;;;5015371;28;20405;-63
2022/08/27 12:39:38;;;;;;;20.30;18.17;;;;;;;;;;5014985;28;20966;-64
2022/08/27 12:42:11;;;;;;;22.17;19.77;;;;;;;;;;5014990;28;20454;-64
2022/08/27 12:44:37;;;;;;;21.67;18.80;;;;;;;;;;5014958;28;20422;-64
2022/08/27 12:47:06;;;;;;;21.43;19.27;;;;;;;;;;5014972;28;20420;-64
2022/08/27 12:49:44;;;;;;;21.17;17.50;;;;;;;;;;5015097;28;20800;-64
2022/08/27 12:52:19;;;;;;;17.60;15.47;;;;;;;;;;5014705;28;20914;-64
2022/08/27 12:55:00;;;;;;;19.50;17.70;;;;;;;;;;5014995;28;20476;-64
2022/08/27 12:57:40;;;;;;;22.20;17.33;;;;;;;;;;5014896;28;20411;-64
2022/08/27 13:00:20;;;;;;;17.63;15.90;;;;;;;;;;5015071;28;20514;-64
2022/08/27 13:02:46;;;;;;;19.03;16.67;;;;;;;;;;5015322;28;20770;-64
2022/08/27 13:05:12;;;;;;;17.70;15.93;;;;;;;;;;5015506;28;20405;-64
2022/08/27 13:07:42;;;;;;;17.23;15.30;;;;;;;;;;5016010;28;20648;-66
2022/08/27 13:10:13;;;;;;;18.30;16.50;;;;;;;;;;5015188;28;20426;-65
2022/08/27 13:12:39;;;;;;;15.47;14.07;;;;;;;;;;5014605;28;20409;-65
2022/08/27 13:15:06;;;;;;;15.57;14.27;;;;;;;;;;5014552;28;20452;-64
2022/08/27 13:17:36;;;;;;;16.50;14.73;;;;;;;;;;5014403;28;20409;-64
2022/08/27 13:20:02;;;;;;;20.00;16.63;;;;;;;;;;5014363;28;20399;-64
2022/08/27 13:22:39;;;;;;;17.80;16.20;;;;;;;;;;5014288;28;20393;-64
2022/08/27 13:25:05;;;;;;;17.03;15.53;;;;;;;;;;5014399;28;20412;-63
2022/08/27 13:27:33;;;;;;;17.07;15.50;;;;;;;;;;5014406;28;20502;-63
2022/08/27 13:30:01;;;;;;;17.40;15.67;;;;;;;;;;5014093;28;20459;-63
2022/08/27 13:32:27;;;;;;;18.07;16.30;;;;;;;;;;5014102;28;20396;-63
2022/08/27 13:34:53;;;;;;;16.37;14.77;;;;;;;;;;5014581;28;20517;-64
2022/08/27 13:37:27;;;;;;;15.00;13.90;;;;;;;;;;5014497;28;20412;-67
2022/08/27 13:39:54;;;;;;;16.73;14.93;;;;;;;;;;5014951;28;20773;-63
2022/08/27 13:42:21;;;;;;;17.63;14.00;;;;;;;;;;5014304;28;20411;-64
2022/08/27 13:44:47;;;;;;;13.47;12.43;;;;;;;;;;5013959;28;20397;-64
2022/08/27 13:47:20;;;;;;;15.03;13.83;;;;;;;;;;5013922;28;20394;-64
2022/08/27 13:49:46;;;;;;;15.67;14.20;;;;;;;;;;5013840;28;20420;-64
2022/08/27 13:52:11;;;;;;;15.13;13.90;;;;;;;;;;5013704;28;20466;-64
2022/08/27 13:54:38;;;;;;;15.60;14.20;;;;;;;;;;5013848;28;20525;-65
2022/08/27 13:57:07;;;;;;;14.87;13.60;;;;;;;;;;5013824;28;20427;-64
2022/08/27 13:59:34;;;;;;;15.20;13.90;;;;;;;;;;5013715;28;20415;-64
2022/08/27 14:02:02;;;;;;;14.90;13.70;;;;;;;;;;5013995;28;20428;-64
2022/08/27 14:04:38;;;;;;;14.17;12.90;;;;;;;;;;5013709;28;20404;-64
2022/08/27 14:07:12;;;;;;;14.70;13.50;;;;;;;;;;5013766;28;20408;-64
2022/08/27 14:09:49;;;;;;;15.73;14.33;;;;;;;;;;5013675;28;20475;-64
2022/08/27 14:12:26;;;;;;;14.63;13.43;;;;;;;;;;5013665;28;20402;-64
2022/08/27 14:14:53;;;;;;;14.50;13.30;;;;;;;;;;5014619;28;20812;-63
2022/08/27 14:17:28;;;;;;;13.90;12.90;;;;;;;;;;5013569;28;20817;-63
2022/08/27 14:19:59;;;;;;;13.40;12.30;;;;;;;;;;5013577;28;20420;-64
2022/08/27 14:22:25;;;;;;;13.93;12.83;;;;;;;;;;5013633;28;20399;-63
2022/08/27 14:24:51;;;;;;;14.07;13.00;;;;;;;;;;5014459;28;20417;-64
2022/08/27 14:27:18;;;;;;;12.57;11.67;;;;;;;;;;5013554;28;20417;-64
2022/08/27 14:29:44;;;;;;;13.23;12.23;;;;;;;;;;5013649;28;20404;-64